sensor_id;sensor_type;location;lat;lon;timestamp;temperature;humidity
22813;DHT22;11573;51.334;3.244;2024-02-26T00:02:17;7.30;99.90
22813;DHT22;11573;51.334;3.244;2024-02-26T00:04:44;7.30;99.90
22813;DHT22;11573;51.334;3.244;2024-02-26T00:07:11;7.20;99.90
22813;DHT22;11573;51.334;3.244;2024-02-26T00:09:38;7.20;99.90
22813;DHT22;11573;51.334;3.244;2024-02-26T00:12:05;7.20;99.90
22813;DHT22;11573;51.334;3.244;2024-02-26T00:14:32;7.20;99.90
22813;DHT22;11573;51.334;3.244;2024-02-26T00:17:00;7.20;99.90
22813;DHT22;11573;51.334;3.244;2024-02-26T00:19:27;7.10;99.90
22813;DHT22;11573;51.334;3.244;2024-02-26T00:21:54;7.10;99.90
22813;DHT22;11573;51.334;3.244;2024-02-26T00:24:22;7.10;99.90
22813;DHT22;11573;51.334;3.244;2024-02-26T00:26:49;7.00;99.90
22813;DHT22;11573;51.334;3.244;2024-02-26T00:29:20;7.00;99.90
22813;DHT22;11573;51.334;3.244;2024-02-26T00:31:47;6.90;99.90
22813;DHT22;11573;51.334;3.244;2024-02-26T00:34:14;6.90;99.90
22813;DHT22;11573;51.334;3.244;2024-02-26T00:36:41;6.80;99.90
22813;DHT22;11573;51.334;3.244;2024-02-26T00:39:08;6.70;99.90
22813;DHT22;11573;51.334;3.244;2024-02-26T00:41:42;6.70;99.90
22813;DHT22;11573;51.334;3.244;2024-02-26T00:44:09;6.70;99.90
22813;DHT22;11573;51.334;3.244;2024-02-26T00:46:36;6.60;99.90
22813;DHT22;11573;51.334;3.244;2024-02-26T00:49:03;6.60;99.90
22813;DHT22;11573;51.334;3.244;2024-02-26T00:51:31;6.50;99.90
22813;DHT22;11573;51.334;3.244;2024-02-26T00:53:58;6.50;99.90
22813;DHT22;11573;51.334;3.244;2024-02-26T00:56:25;6.50;99.90
22813;DHT22;11573;51.334;3.244;2024-02-26T00:58:52;6.50;99.90
22813;DHT22;11573;51.334;3.244;2024-02-26T01:01:19;6.50;99.90
22813;DHT22;11573;51.334;3.244;2024-02-26T01:03:46;6.50;99.90
22813;DHT22;11573;51.334;3.244;2024-02-26T01:06:14;6.40;99.90
22813;DHT22;11573;51.334;3.244;2024-02-26T01:08:41;6.40;99.90
22813;DHT22;11573;51.334;3.244;2024-02-26T01:11:08;6.40;99.90
22813;DHT22;11573;51.334;3.244;2024-02-26T01:13:35;6.40;99.90
22813;DHT22;11573;51.334;3.244;2024-02-26T01:16:02;6.40;99.90
22813;DHT22;11573;51.334;3.244;2024-02-26T01:18:29;6.40;99.90
22813;DHT22;11573;51.334;3.244;2024-02-26T01:20:57;6.30;99.90
22813;DHT22;11573;51.334;3.244;2024-02-26T01:23:24;6.30;99.90
22813;DHT22;11573;51.334;3.244;2024-02-26T01:25:51;6.40;99.90
22813;DHT22;11573;51.334;3.244;2024-02-26T01:28:18;6.30;99.90
22813;DHT22;11573;51.334;3.244;2024-02-26T01:30:45;6.30;99.90
22813;DHT22;11573;51.334;3.244;2024-02-26T01:33:12;6.40;99.90
22813;DHT22;11573;51.334;3.244;2024-02-26T01:35:39;6.40;99.90
22813;DHT22;11573;51.334;3.244;2024-02-26T01:38:07;6.30;99.90
22813;DHT22;11573;51.334;3.244;2024-02-26T01:40:34;6.40;99.90
22813;DHT22;11573;51.334;3.244;2024-02-26T01:43:01;6.30;99.90
22813;DHT22;11573;51.334;3.244;2024-02-26T01:45:28;6.30;99.90
22813;DHT22;11573;51.334;3.244;2024-02-26T01:47:56;6.30;99.90
22813;DHT22;11573;51.334;3.244;2024-02-26T01:50:24;6.30;99.90
22813;DHT22;11573;51.334;3.244;2024-02-26T01:52:52;6.40;99.90
22813;DHT22;11573;51.334;3.244;2024-02-26T01:55:20;6.30;99.90
22813;DHT22;11573;51.334;3.244;2024-02-26T01:57:50;6.30;99.90
22813;DHT22;11573;51.334;3.244;2024-02-26T02:00:20;6.30;99.90
22813;DHT22;11573;51.334;3.244;2024-02-26T02:02:48;6.30;99.90
22813;DHT22;11573;51.334;3.244;2024-02-26T02:05:17;6.30;99.90
22813;DHT22;11573;51.334;3.244;2024-02-26T02:07:44;6.30;99.90
22813;DHT22;11573;51.334;3.244;2024-02-26T02:10:12;6.30;99.90
22813;DHT22;11573;51.334;3.244;2024-02-26T02:12:40;6.20;99.90
22813;DHT22;11573;51.334;3.244;2024-02-26T02:15:07;6.30;99.90
22813;DHT22;11573;51.334;3.244;2024-02-26T02:17:35;6.20;99.90
22813;DHT22;11573;51.334;3.244;2024-02-26T02:20:02;6.30;99.90
22813;DHT22;11573;51.334;3.244;2024-02-26T02:22:30;6.20;99.90
22813;DHT22;11573;51.334;3.244;2024-02-26T02:24:59;6.20;99.90
22813;DHT22;11573;51.334;3.244;2024-02-26T02:27:28;6.20;99.90
22813;DHT22;11573;51.334;3.244;2024-02-26T02:29:56;6.20;99.90
22813;DHT22;11573;51.334;3.244;2024-02-26T02:32:24;6.30;99.90
22813;DHT22;11573;51.334;3.244;2024-02-26T02:34:52;6.20;99.90
22813;DHT22;11573;51.334;3.244;2024-02-26T02:37:19;6.20;99.90
22813;DHT22;11573;51.334;3.244;2024-02-26T02:39:46;6.20;99.90
22813;DHT22;11573;51.334;3.244;2024-02-26T02:42:13;6.20;99.90
22813;DHT22;11573;51.334;3.244;2024-02-26T02:44:40;6.20;99.90
22813;DHT22;11573;51.334;3.244;2024-02-26T02:47:07;6.20;99.90
22813;DHT22;11573;51.334;3.244;2024-02-26T02:49:34;6.20;99.90
22813;DHT22;11573;51.334;3.244;2024-02-26T02:52:01;6.10;99.90
22813;DHT22;11573;51.334;3.244;2024-02-26T02:54:28;6.10;99.90
22813;DHT22;11573;51.334;3.244;2024-02-26T02:56:55;6.10;99.90
22813;DHT22;11573;51.334;3.244;2024-02-26T02:59:22;6.20;99.90
22813;DHT22;11573;51.334;3.244;2024-02-26T03:01:49;6.10;99.90
22813;DHT22;11573;51.334;3.244;2024-02-26T03:04:16;6.10;99.90
22813;DHT22;11573;51.334;3.244;2024-02-26T03:06:43;6.20;99.90
22813;DHT22;11573;51.334;3.244;2024-02-26T03:09:10;6.20;99.90
22813;DHT22;11573;51.334;3.244;2024-02-26T03:11:38;6.20;99.90
22813;DHT22;11573;51.334;3.244;2024-02-26T03:14:05;6.20;99.90
22813;DHT22;11573;51.334;3.244;2024-02-26T03:16:33;6.20;99.90
22813;DHT22;11573;51.334;3.244;2024-02-26T03:19:00;6.20;99.90
22813;DHT22;11573;51.334;3.244;2024-02-26T03:21:27;6.20;99.90
22813;DHT22;11573;51.334;3.244;2024-02-26T03:23:55;6.20;99.90
22813;DHT22;11573;51.334;3.244;2024-02-26T03:26:22;6.20;99.90
22813;DHT22;11573;51.334;3.244;2024-02-26T03:28:49;6.20;99.90
22813;DHT22;11573;51.334;3.244;2024-02-26T03:31:16;6.20;99.90
22813;DHT22;11573;51.334;3.244;2024-02-26T03:33:42;6.20;99.90
22813;DHT22;11573;51.334;3.244;2024-02-26T03:36:10;6.20;99.90
22813;DHT22;11573;51.334;3.244;2024-02-26T03:38:38;6.20;99.90
22813;DHT22;11573;51.334;3.244;2024-02-26T03:41:05;6.20;99.90
22813;DHT22;11573;51.334;3.244;2024-02-26T03:43:32;6.20;99.90
22813;DHT22;11573;51.334;3.244;2024-02-26T03:45:59;6.20;99.90
22813;DHT22;11573;51.334;3.244;2024-02-26T03:48:26;6.20;99.90
22813;DHT22;11573;51.334;3.244;2024-02-26T03:50:54;6.10;99.90
22813;DHT22;11573;51.334;3.244;2024-02-26T03:53:21;6.20;99.90
22813;DHT22;11573;51.334;3.244;2024-02-26T03:55:48;6.10;99.90
22813;DHT22;11573;51.334;3.244;2024-02-26T03:58:15;6.10;99.90
22813;DHT22;11573;51.334;3.244;2024-02-26T04:00:43;6.20;99.90
22813;DHT22;11573;51.334;3.244;2024-02-26T04:03:10;6.10;99.90
22813;DHT22;11573;51.334;3.244;2024-02-26T04:05:37;6.20;99.90
22813;DHT22;11573;51.334;3.244;2024-02-26T04:08:05;6.10;99.90
22813;DHT22;11573;51.334;3.244;2024-02-26T04:10:34;6.20;99.90
22813;DHT22;11573;51.334;3.244;2024-02-26T04:13:07;6.20;99.90
22813;DHT22;11573;51.334;3.244;2024-02-26T04:15:35;6.20;99.90
22813;DHT22;11573;51.334;3.244;2024-02-26T04:18:02;6.20;99.90
22813;DHT22;11573;51.334;3.244;2024-02-26T04:20:29;6.10;99.90
22813;DHT22;11573;51.334;3.244;2024-02-26T04:22:56;6.10;99.90
22813;DHT22;11573;51.334;3.244;2024-02-26T04:25:24;6.10;99.90
22813;DHT22;11573;51.334;3.244;2024-02-26T04:27:51;6.10;99.90
22813;DHT22;11573;51.334;3.244;2024-02-26T04:30:18;6.10;99.90
22813;DHT22;11573;51.334;3.244;2024-02-26T04:32:45;6.10;99.90
22813;DHT22;11573;51.334;3.244;2024-02-26T04:35:12;6.10;99.90
22813;DHT22;11573;51.334;3.244;2024-02-26T04:37:39;6.10;99.90
22813;DHT22;11573;51.334;3.244;2024-02-26T04:40:07;6.10;99.90
22813;DHT22;11573;51.334;3.244;2024-02-26T04:42:34;6.10;99.90
22813;DHT22;11573;51.334;3.244;2024-02-26T04:45:01;6.10;99.90
22813;DHT22;11573;51.334;3.244;2024-02-26T04:47:29;6.10;99.90
22813;DHT22;11573;51.334;3.244;2024-02-26T04:49:57;6.10;99.90
22813;DHT22;11573;51.334;3.244;2024-02-26T04:52:24;6.00;99.90
22813;DHT22;11573;51.334;3.244;2024-02-26T04:54:51;6.00;99.90
22813;DHT22;11573;51.334;3.244;2024-02-26T04:57:18;6.00;99.90
22813;DHT22;11573;51.334;3.244;2024-02-26T04:59:45;6.00;99.90
22813;DHT22;11573;51.334;3.244;2024-02-26T05:02:13;6.10;99.90
22813;DHT22;11573;51.334;3.244;2024-02-26T05:04:40;6.00;99.90
22813;DHT22;11573;51.334;3.244;2024-02-26T05:07:08;6.00;99.90
22813;DHT22;11573;51.334;3.244;2024-02-26T05:09:35;6.00;99.90
22813;DHT22;11573;51.334;3.244;2024-02-26T05:12:02;6.00;99.90
22813;DHT22;11573;51.334;3.244;2024-02-26T05:14:30;5.90;99.90
22813;DHT22;11573;51.334;3.244;2024-02-26T05:16:57;5.90;99.90
22813;DHT22;11573;51.334;3.244;2024-02-26T05:19:24;5.90;99.90
22813;DHT22;11573;51.334;3.244;2024-02-26T05:21:51;5.90;99.90
22813;DHT22;11573;51.334;3.244;2024-02-26T05:24:18;5.90;99.90
22813;DHT22;11573;51.334;3.244;2024-02-26T05:26:49;5.80;99.90
22813;DHT22;11573;51.334;3.244;2024-02-26T05:29:16;5.80;99.90
22813;DHT22;11573;51.334;3.244;2024-02-26T05:31:43;5.80;99.90
22813;DHT22;11573;51.334;3.244;2024-02-26T05:34:10;5.80;99.90
22813;DHT22;11573;51.334;3.244;2024-02-26T05:36:37;5.80;99.90
22813;DHT22;11573;51.334;3.244;2024-02-26T05:39:05;5.80;99.90
22813;DHT22;11573;51.334;3.244;2024-02-26T05:41:32;5.80;99.90
22813;DHT22;11573;51.334;3.244;2024-02-26T05:43:59;5.80;99.90
22813;DHT22;11573;51.334;3.244;2024-02-26T05:46:26;5.80;99.90
22813;DHT22;11573;51.334;3.244;2024-02-26T05:48:54;5.80;99.90
22813;DHT22;11573;51.334;3.244;2024-02-26T05:51:21;5.80;99.90
22813;DHT22;11573;51.334;3.244;2024-02-26T05:53:49;5.80;99.90
22813;DHT22;11573;51.334;3.244;2024-02-26T05:56:24;5.80;99.90
22813;DHT22;11573;51.334;3.244;2024-02-26T05:58:51;5.70;99.90
22813;DHT22;11573;51.334;3.244;2024-02-26T06:01:19;5.80;99.90
22813;DHT22;11573;51.334;3.244;2024-02-26T06:03:46;5.80;99.90
22813;DHT22;11573;51.334;3.244;2024-02-26T06:06:14;5.70;99.90
22813;DHT22;11573;51.334;3.244;2024-02-26T06:08:42;5.70;99.90
22813;DHT22;11573;51.334;3.244;2024-02-26T06:11:09;5.80;99.90
22813;DHT22;11573;51.334;3.244;2024-02-26T06:13:36;5.70;99.90
22813;DHT22;11573;51.334;3.244;2024-02-26T06:16:04;5.70;99.90
22813;DHT22;11573;51.334;3.244;2024-02-26T06:18:31;5.80;99.90
22813;DHT22;11573;51.334;3.244;2024-02-26T06:20:58;5.80;99.90
22813;DHT22;11573;51.334;3.244;2024-02-26T06:23:26;5.80;99.90
22813;DHT22;11573;51.334;3.244;2024-02-26T06:25:53;5.80;99.90
22813;DHT22;11573;51.334;3.244;2024-02-26T06:28:20;5.90;99.90
22813;DHT22;11573;51.334;3.244;2024-02-26T06:30:47;5.90;99.90
22813;DHT22;11573;51.334;3.244;2024-02-26T06:33:14;5.80;99.90
22813;DHT22;11573;51.334;3.244;2024-02-26T06:35:41;5.90;99.90
22813;DHT22;11573;51.334;3.244;2024-02-26T06:38:09;5.90;99.90
22813;DHT22;11573;51.334;3.244;2024-02-26T06:40:36;5.80;99.90
22813;DHT22;11573;51.334;3.244;2024-02-26T06:43:04;5.90;99.90
22813;DHT22;11573;51.334;3.244;2024-02-26T06:45:31;5.90;99.90
22813;DHT22;11573;51.334;3.244;2024-02-26T06:47:58;5.80;99.90
22813;DHT22;11573;51.334;3.244;2024-02-26T06:50:26;5.80;99.90
22813;DHT22;11573;51.334;3.244;2024-02-26T06:52:53;5.80;99.90
22813;DHT22;11573;51.334;3.244;2024-02-26T06:55:20;5.80;99.90
22813;DHT22;11573;51.334;3.244;2024-02-26T06:57:47;5.80;99.90
22813;DHT22;11573;51.334;3.244;2024-02-26T07:00:14;5.80;99.90
22813;DHT22;11573;51.334;3.244;2024-02-26T07:02:43;5.70;99.90
22813;DHT22;11573;51.334;3.244;2024-02-26T07:05:11;5.70;99.90
22813;DHT22;11573;51.334;3.244;2024-02-26T07:07:38;5.70;99.90
22813;DHT22;11573;51.334;3.244;2024-02-26T07:10:05;5.70;99.90
22813;DHT22;11573;51.334;3.244;2024-02-26T07:12:33;5.70;99.90
22813;DHT22;11573;51.334;3.244;2024-02-26T07:15:00;5.70;99.90
22813;DHT22;11573;51.334;3.244;2024-02-26T07:17:28;5.70;99.90
22813;DHT22;11573;51.334;3.244;2024-02-26T07:19:56;5.70;99.90
22813;DHT22;11573;51.334;3.244;2024-02-26T07:22:23;5.70;99.90
22813;DHT22;11573;51.334;3.244;2024-02-26T07:24:51;5.60;99.90
22813;DHT22;11573;51.334;3.244;2024-02-26T07:27:18;5.70;99.90
22813;DHT22;11573;51.334;3.244;2024-02-26T07:29:46;5.60;99.90
22813;DHT22;11573;51.334;3.244;2024-02-26T07:32:13;5.60;99.90
22813;DHT22;11573;51.334;3.244;2024-02-26T07:34:41;5.60;99.90
22813;DHT22;11573;51.334;3.244;2024-02-26T07:37:12;5.70;99.90
22813;DHT22;11573;51.334;3.244;2024-02-26T07:39:39;5.60;99.90
22813;DHT22;11573;51.334;3.244;2024-02-26T07:42:06;5.60;99.90
22813;DHT22;11573;51.334;3.244;2024-02-26T07:44:33;5.60;99.90
22813;DHT22;11573;51.334;3.244;2024-02-26T07:47:00;5.60;99.90
22813;DHT22;11573;51.334;3.244;2024-02-26T07:49:27;5.60;99.90
22813;DHT22;11573;51.334;3.244;2024-02-26T07:51:55;5.60;99.90
22813;DHT22;11573;51.334;3.244;2024-02-26T07:54:24;5.60;99.90
22813;DHT22;11573;51.334;3.244;2024-02-26T07:56:51;5.60;99.90
22813;DHT22;11573;51.334;3.244;2024-02-26T07:59:19;5.60;99.90
22813;DHT22;11573;51.334;3.244;2024-02-26T08:01:52;5.60;99.90
22813;DHT22;11573;51.334;3.244;2024-02-26T08:04:24;5.60;99.90
22813;DHT22;11573;51.334;3.244;2024-02-26T08:06:53;5.70;99.90
22813;DHT22;11573;51.334;3.244;2024-02-26T08:09:21;5.70;99.90
22813;DHT22;11573;51.334;3.244;2024-02-26T08:11:48;5.60;99.90
22813;DHT22;11573;51.334;3.244;2024-02-26T08:14:15;5.60;99.90
22813;DHT22;11573;51.334;3.244;2024-02-26T08:16:42;5.70;99.90
22813;DHT22;11573;51.334;3.244;2024-02-26T08:19:09;5.60;99.90
22813;DHT22;11573;51.334;3.244;2024-02-26T08:21:38;5.60;99.90
22813;DHT22;11573;51.334;3.244;2024-02-26T08:24:05;5.60;99.90
22813;DHT22;11573;51.334;3.244;2024-02-26T08:26:32;5.60;99.90
22813;DHT22;11573;51.334;3.244;2024-02-26T08:28:59;5.60;99.90
22813;DHT22;11573;51.334;3.244;2024-02-26T08:31:26;5.60;99.90
22813;DHT22;11573;51.334;3.244;2024-02-26T08:33:54;5.70;99.90
22813;DHT22;11573;51.334;3.244;2024-02-26T08:36:22;5.60;99.90
22813;DHT22;11573;51.334;3.244;2024-02-26T08:38:49;5.60;99.90
22813;DHT22;11573;51.334;3.244;2024-02-26T08:41:16;5.60;99.90
22813;DHT22;11573;51.334;3.244;2024-02-26T08:43:43;5.60;99.90
22813;DHT22;11573;51.334;3.244;2024-02-26T08:46:12;5.50;99.90
22813;DHT22;11573;51.334;3.244;2024-02-26T08:48:39;5.60;99.90
22813;DHT22;11573;51.334;3.244;2024-02-26T08:51:08;5.60;99.90
22813;DHT22;11573;51.334;3.244;2024-02-26T08:53:36;5.60;99.90
22813;DHT22;11573;51.334;3.244;2024-02-26T08:56:10;5.60;99.90
22813;DHT22;11573;51.334;3.244;2024-02-26T08:58:44;5.60;99.90
22813;DHT22;11573;51.334;3.244;2024-02-26T09:01:11;5.60;99.90
22813;DHT22;11573;51.334;3.244;2024-02-26T09:03:38;5.60;99.90
22813;DHT22;11573;51.334;3.244;2024-02-26T09:06:06;5.60;99.90
22813;DHT22;11573;51.334;3.244;2024-02-26T09:08:33;5.60;99.90
22813;DHT22;11573;51.334;3.244;2024-02-26T09:11:03;5.60;99.90
22813;DHT22;11573;51.334;3.244;2024-02-26T09:13:30;5.60;99.90
22813;DHT22;11573;51.334;3.244;2024-02-26T09:15:57;5.70;99.90
22813;DHT22;11573;51.334;3.244;2024-02-26T09:18:26;5.70;99.90
22813;DHT22;11573;51.334;3.244;2024-02-26T09:20:53;5.70;99.90
22813;DHT22;11573;51.334;3.244;2024-02-26T09:23:20;5.60;99.90
22813;DHT22;11573;51.334;3.244;2024-02-26T09:25:47;5.60;99.90
22813;DHT22;11573;51.334;3.244;2024-02-26T09:28:14;5.70;99.90
22813;DHT22;11573;51.334;3.244;2024-02-26T09:30:44;5.70;99.90
22813;DHT22;11573;51.334;3.244;2024-02-26T09:33:11;5.70;99.90
22813;DHT22;11573;51.334;3.244;2024-02-26T09:35:40;5.70;99.90
22813;DHT22;11573;51.334;3.244;2024-02-26T09:38:08;5.70;99.90
22813;DHT22;11573;51.334;3.244;2024-02-26T09:40:35;5.70;99.90
22813;DHT22;11573;51.334;3.244;2024-02-26T09:43:05;5.70;99.90
22813;DHT22;11573;51.334;3.244;2024-02-26T09:45:33;5.70;99.90
22813;DHT22;11573;51.334;3.244;2024-02-26T09:48:02;5.70;99.90
22813;DHT22;11573;51.334;3.244;2024-02-26T09:50:31;5.70;99.90
22813;DHT22;11573;51.334;3.244;2024-02-26T09:52:59;5.70;99.90
22813;DHT22;11573;51.334;3.244;2024-02-26T09:55:29;5.70;99.90
22813;DHT22;11573;51.334;3.244;2024-02-26T09:57:57;5.70;99.90
22813;DHT22;11573;51.334;3.244;2024-02-26T10:00:26;5.70;99.90
22813;DHT22;11573;51.334;3.244;2024-02-26T10:02:56;5.70;99.90
22813;DHT22;11573;51.334;3.244;2024-02-26T10:05:29;5.70;99.90
22813;DHT22;11573;51.334;3.244;2024-02-26T10:07:56;5.70;99.90
22813;DHT22;11573;51.334;3.244;2024-02-26T10:10:24;5.70;99.90
22813;DHT22;11573;51.334;3.244;2024-02-26T10:12:52;5.70;99.90
22813;DHT22;11573;51.334;3.244;2024-02-26T10:15:19;5.80;99.90
22813;DHT22;11573;51.334;3.244;2024-02-26T10:17:46;5.70;99.90
22813;DHT22;11573;51.334;3.244;2024-02-26T10:20:15;5.70;99.90
22813;DHT22;11573;51.334;3.244;2024-02-26T10:22:47;5.80;99.90
22813;DHT22;11573;51.334;3.244;2024-02-26T10:25:14;5.80;99.90
22813;DHT22;11573;51.334;3.244;2024-02-26T10:27:42;5.80;99.90
22813;DHT22;11573;51.334;3.244;2024-02-26T10:30:22;5.70;99.90
22813;DHT22;11573;51.334;3.244;2024-02-26T10:32:50;5.70;99.90
22813;DHT22;11573;51.334;3.244;2024-02-26T10:35:18;5.70;99.90
22813;DHT22;11573;51.334;3.244;2024-02-26T10:37:48;5.70;99.90
22813;DHT22;11573;51.334;3.244;2024-02-26T10:40:16;5.70;99.90
22813;DHT22;11573;51.334;3.244;2024-02-26T10:42:43;5.70;99.90
22813;DHT22;11573;51.334;3.244;2024-02-26T10:45:12;5.70;99.90
22813;DHT22;11573;51.334;3.244;2024-02-26T10:47:40;5.70;99.90
22813;DHT22;11573;51.334;3.244;2024-02-26T10:50:09;5.80;99.90
22813;DHT22;11573;51.334;3.244;2024-02-26T10:52:37;5.70;99.90
22813;DHT22;11573;51.334;3.244;2024-02-26T10:55:05;5.70;99.90
22813;DHT22;11573;51.334;3.244;2024-02-26T10:57:39;5.70;99.90
22813;DHT22;11573;51.334;3.244;2024-02-26T11:00:08;5.80;99.90
22813;DHT22;11573;51.334;3.244;2024-02-26T11:02:40;5.80;99.90
22813;DHT22;11573;51.334;3.244;2024-02-26T11:05:08;5.80;99.90
22813;DHT22;11573;51.334;3.244;2024-02-26T11:07:35;5.80;99.90
22813;DHT22;11573;51.334;3.244;2024-02-26T11:10:04;5.90;99.90
22813;DHT22;11573;51.334;3.244;2024-02-26T11:12:32;5.90;99.90
22813;DHT22;11573;51.334;3.244;2024-02-26T11:15:03;5.80;99.90
22813;DHT22;11573;51.334;3.244;2024-02-26T11:17:31;5.90;99.90
22813;DHT22;11573;51.334;3.244;2024-02-26T11:19:59;6.00;99.90
22813;DHT22;11573;51.334;3.244;2024-02-26T11:22:27;6.00;99.90
22813;DHT22;11573;51.334;3.244;2024-02-26T11:24:55;5.90;99.90
22813;DHT22;11573;51.334;3.244;2024-02-26T11:27:28;5.80;99.90
22813;DHT22;11573;51.334;3.244;2024-02-26T11:29:58;5.90;99.90
22813;DHT22;11573;51.334;3.244;2024-02-26T11:32:27;5.90;99.90
22813;DHT22;11573;51.334;3.244;2024-02-26T11:34:58;5.80;99.90
22813;DHT22;11573;51.334;3.244;2024-02-26T11:37:26;5.90;99.90
22813;DHT22;11573;51.334;3.244;2024-02-26T11:39:53;5.90;99.90
22813;DHT22;11573;51.334;3.244;2024-02-26T11:42:23;5.90;99.90
22813;DHT22;11573;51.334;3.244;2024-02-26T11:44:52;6.00;99.90
22813;DHT22;11573;51.334;3.244;2024-02-26T11:47:21;6.00;99.90
22813;DHT22;11573;51.334;3.244;2024-02-26T11:49:48;6.10;99.90
22813;DHT22;11573;51.334;3.244;2024-02-26T11:52:16;6.10;99.90
22813;DHT22;11573;51.334;3.244;2024-02-26T11:54:51;6.00;99.90
22813;DHT22;11573;51.334;3.244;2024-02-26T11:57:25;6.00;99.90
22813;DHT22;11573;51.334;3.244;2024-02-26T12:00:00;6.10;99.90
22813;DHT22;11573;51.334;3.244;2024-02-26T12:05:26;6.10;99.90
22813;DHT22;11573;51.334;3.244;2024-02-26T12:08:06;5.90;99.90
22813;DHT22;11573;51.334;3.244;2024-02-26T12:10:36;5.90;99.90
22813;DHT22;11573;51.334;3.244;2024-02-26T12:13:05;5.90;99.90
22813;DHT22;11573;51.334;3.244;2024-02-26T12:15:38;5.80;99.90
22813;DHT22;11573;51.334;3.244;2024-02-26T12:18:07;5.80;99.90
22813;DHT22;11573;51.334;3.244;2024-02-26T12:20:35;5.90;99.90
22813;DHT22;11573;51.334;3.244;2024-02-26T12:23:05;6.00;99.90
22813;DHT22;11573;51.334;3.244;2024-02-26T12:25:33;6.00;99.90
22813;DHT22;11573;51.334;3.244;2024-02-26T12:28:00;6.00;99.90
22813;DHT22;11573;51.334;3.244;2024-02-26T12:30:27;6.00;99.90
22813;DHT22;11573;51.334;3.244;2024-02-26T12:33:00;6.00;99.90
22813;DHT22;11573;51.334;3.244;2024-02-26T12:35:28;6.00;99.90
22813;DHT22;11573;51.334;3.244;2024-02-26T12:37:58;6.00;99.90
22813;DHT22;11573;51.334;3.244;2024-02-26T12:40:25;6.10;99.90
22813;DHT22;11573;51.334;3.244;2024-02-26T12:42:54;6.10;99.90
22813;DHT22;11573;51.334;3.244;2024-02-26T12:45:22;6.10;99.90
22813;DHT22;11573;51.334;3.244;2024-02-26T12:47:49;6.20;99.90
22813;DHT22;11573;51.334;3.244;2024-02-26T12:50:16;6.20;99.90
22813;DHT22;11573;51.334;3.244;2024-02-26T12:52:46;6.20;99.90
22813;DHT22;11573;51.334;3.244;2024-02-26T12:55:18;6.30;99.90
22813;DHT22;11573;51.334;3.244;2024-02-26T12:57:47;6.20;99.90
22813;DHT22;11573;51.334;3.244;2024-02-26T13:00:18;6.20;99.90
22813;DHT22;11573;51.334;3.244;2024-02-26T13:02:46;6.20;99.90
22813;DHT22;11573;51.334;3.244;2024-02-26T13:05:14;6.30;99.90
22813;DHT22;11573;51.334;3.244;2024-02-26T13:07:42;6.30;99.90
22813;DHT22;11573;51.334;3.244;2024-02-26T13:10:10;6.20;99.90
22813;DHT22;11573;51.334;3.244;2024-02-26T13:12:44;6.20;99.90
22813;DHT22;11573;51.334;3.244;2024-02-26T13:15:21;6.30;99.90
22813;DHT22;11573;51.334;3.244;2024-02-26T13:17:49;6.40;99.90
22813;DHT22;11573;51.334;3.244;2024-02-26T13:20:27;6.40;99.90
22813;DHT22;11573;51.334;3.244;2024-02-26T13:23:01;6.40;99.90
22813;DHT22;11573;51.334;3.244;2024-02-26T13:25:29;6.40;99.90
22813;DHT22;11573;51.334;3.244;2024-02-26T13:28:15;6.40;99.90
22813;DHT22;11573;51.334;3.244;2024-02-26T13:30:55;6.60;99.90
22813;DHT22;11573;51.334;3.244;2024-02-26T13:33:28;6.70;99.90
22813;DHT22;11573;51.334;3.244;2024-02-26T13:35:56;6.60;99.90
22813;DHT22;11573;51.334;3.244;2024-02-26T13:38:24;6.60;99.90
22813;DHT22;11573;51.334;3.244;2024-02-26T13:40:52;6.60;99.90
22813;DHT22;11573;51.334;3.244;2024-02-26T13:43:20;6.70;99.90
22813;DHT22;11573;51.334;3.244;2024-02-26T13:45:47;6.70;99.90
22813;DHT22;11573;51.334;3.244;2024-02-26T13:48:17;6.70;99.90
22813;DHT22;11573;51.334;3.244;2024-02-26T13:50:44;6.70;99.90
22813;DHT22;11573;51.334;3.244;2024-02-26T13:53:13;6.70;99.90
22813;DHT22;11573;51.334;3.244;2024-02-26T13:55:41;6.80;99.90
22813;DHT22;11573;51.334;3.244;2024-02-26T13:58:14;6.80;99.90
22813;DHT22;11573;51.334;3.244;2024-02-26T14:00:41;6.80;99.90
22813;DHT22;11573;51.334;3.244;2024-02-26T14:03:10;6.70;99.90
22813;DHT22;11573;51.334;3.244;2024-02-26T14:05:37;6.60;99.90
22813;DHT22;11573;51.334;3.244;2024-02-26T14:08:04;6.70;99.90
22813;DHT22;11573;51.334;3.244;2024-02-26T14:10:32;6.60;99.90
22813;DHT22;11573;51.334;3.244;2024-02-26T14:12:59;6.60;99.90
22813;DHT22;11573;51.334;3.244;2024-02-26T14:15:27;6.60;99.90
22813;DHT22;11573;51.334;3.244;2024-02-26T14:17:56;6.60;99.90
22813;DHT22;11573;51.334;3.244;2024-02-26T14:20:24;6.50;99.90
22813;DHT22;11573;51.334;3.244;2024-02-26T14:22:52;6.50;99.90
22813;DHT22;11573;51.334;3.244;2024-02-26T14:25:22;6.50;99.90
22813;DHT22;11573;51.334;3.244;2024-02-26T14:27:49;6.60;99.90
22813;DHT22;11573;51.334;3.244;2024-02-26T14:30:16;6.60;99.90
22813;DHT22;11573;51.334;3.244;2024-02-26T14:32:43;6.60;99.90
22813;DHT22;11573;51.334;3.244;2024-02-26T14:35:11;6.40;99.90
22813;DHT22;11573;51.334;3.244;2024-02-26T14:37:44;6.50;99.90
22813;DHT22;11573;51.334;3.244;2024-02-26T14:40:16;6.50;99.90
22813;DHT22;11573;51.334;3.244;2024-02-26T14:42:43;6.50;99.90
22813;DHT22;11573;51.334;3.244;2024-02-26T14:45:10;6.50;99.90
22813;DHT22;11573;51.334;3.244;2024-02-26T14:47:38;6.50;99.90
22813;DHT22;11573;51.334;3.244;2024-02-26T14:50:06;6.50;99.90
22813;DHT22;11573;51.334;3.244;2024-02-26T14:52:33;6.60;99.90
22813;DHT22;11573;51.334;3.244;2024-02-26T14:55:00;6.70;99.90
22813;DHT22;11573;51.334;3.244;2024-02-26T14:57:27;6.70;99.90
22813;DHT22;11573;51.334;3.244;2024-02-26T14:59:54;6.70;99.90
22813;DHT22;11573;51.334;3.244;2024-02-26T15:02:22;6.80;99.90
22813;DHT22;11573;51.334;3.244;2024-02-26T15:04:49;6.70;99.90
22813;DHT22;11573;51.334;3.244;2024-02-26T15:07:16;6.70;99.90
22813;DHT22;11573;51.334;3.244;2024-02-26T15:09:43;6.80;99.90
22813;DHT22;11573;51.334;3.244;2024-02-26T15:12:10;7.00;99.90
22813;DHT22;11573;51.334;3.244;2024-02-26T15:14:38;7.00;99.90
22813;DHT22;11573;51.334;3.244;2024-02-26T15:17:05;7.10;99.90
22813;DHT22;11573;51.334;3.244;2024-02-26T15:19:37;7.10;99.90
22813;DHT22;11573;51.334;3.244;2024-02-26T15:22:05;7.10;99.90
22813;DHT22;11573;51.334;3.244;2024-02-26T15:24:32;7.20;99.90
22813;DHT22;11573;51.334;3.244;2024-02-26T15:26:59;7.20;99.90
22813;DHT22;11573;51.334;3.244;2024-02-26T15:29:26;7.20;99.90
22813;DHT22;11573;51.334;3.244;2024-02-26T15:31:53;7.20;99.90
22813;DHT22;11573;51.334;3.244;2024-02-26T15:34:20;7.20;99.90
22813;DHT22;11573;51.334;3.244;2024-02-26T15:36:47;7.20;99.90
22813;DHT22;11573;51.334;3.244;2024-02-26T15:39:14;7.20;99.90
22813;DHT22;11573;51.334;3.244;2024-02-26T15:41:42;7.20;99.90
22813;DHT22;11573;51.334;3.244;2024-02-26T15:44:09;7.20;99.90
22813;DHT22;11573;51.334;3.244;2024-02-26T15:46:40;7.30;99.90
22813;DHT22;11573;51.334;3.244;2024-02-26T15:49:07;7.20;99.90
22813;DHT22;11573;51.334;3.244;2024-02-26T15:51:38;7.20;99.90
22813;DHT22;11573;51.334;3.244;2024-02-26T15:54:05;7.20;99.90